sensor_id;sensor_type;location;lat;lon;timestamp;temperature;humidity
36416;DHT22;22447;44.530;18.620;2023-05-02T00:00:08;12.50;99.90
36416;DHT22;22447;44.530;18.620;2023-05-02T00:02:34;12.50;99.90
36416;DHT22;22447;44.530;18.620;2023-05-02T00:05:00;12.40;99.90
36416;DHT22;22447;44.530;18.620;2023-05-02T00:07:26;12.50;99.90
36416;DHT22;22447;44.530;18.620;2023-05-02T00:09:52;12.50;99.90
36416;DHT22;22447;44.530;18.620;2023-05-02T00:12:18;12.50;99.90
36416;DHT22;22447;44.530;18.620;2023-05-02T00:14:43;12.50;99.90
36416;DHT22;22447;44.530;18.620;2023-05-02T00:17:15;12.50;99.90
36416;DHT22;22447;44.530;18.620;2023-05-02T00:19:41;12.50;99.90
36416;DHT22;22447;44.530;18.620;2023-05-02T00:22:07;12.50;99.90
36416;DHT22;22447;44.530;18.620;2023-05-02T00:24:33;12.50;99.90
36416;DHT22;22447;44.530;18.620;2023-05-02T00:26:59;12.50;99.90
36416;DHT22;22447;44.530;18.620;2023-05-02T00:29:25;12.70;99.90
36416;DHT22;22447;44.530;18.620;2023-05-02T00:31:51;12.60;99.90
36416;DHT22;22447;44.530;18.620;2023-05-02T00:34:17;12.60;99.90
36416;DHT22;22447;44.530;18.620;2023-05-02T00:36:42;12.60;99.90
36416;DHT22;22447;44.530;18.620;2023-05-02T00:39:08;12.50;99.90
36416;DHT22;22447;44.530;18.620;2023-05-02T00:41:34;12.60;99.90
36416;DHT22;22447;44.530;18.620;2023-05-02T00:44:00;12.60;99.90
36416;DHT22;22447;44.530;18.620;2023-05-02T00:46:26;12.50;99.90
36416;DHT22;22447;44.530;18.620;2023-05-02T00:48:52;12.50;99.90
36416;DHT22;22447;44.530;18.620;2023-05-02T00:51:18;12.40;99.90
36416;DHT22;22447;44.530;18.620;2023-05-02T00:53:44;12.40;99.90
36416;DHT22;22447;44.530;18.620;2023-05-02T00:56:10;12.50;99.90
36416;DHT22;22447;44.530;18.620;2023-05-02T00:58:36;12.40;99.90
36416;DHT22;22447;44.530;18.620;2023-05-02T01:03:38;12.40;99.90
36416;DHT22;22447;44.530;18.620;2023-05-02T01:08:35;12.40;99.90
36416;DHT22;22447;44.530;18.620;2023-05-02T01:11:13;12.40;99.90
36416;DHT22;22447;44.530;18.620;2023-05-02T01:13:39;12.40;99.90
36416;DHT22;22447;44.530;18.620;2023-05-02T01:16:07;12.40;99.90
36416;DHT22;22447;44.530;18.620;2023-05-02T01:18:35;12.40;99.90
36416;DHT22;22447;44.530;18.620;2023-05-02T01:21:05;12.40;99.90
36416;DHT22;22447;44.530;18.620;2023-05-02T01:26:20;12.40;99.90
36416;DHT22;22447;44.530;18.620;2023-05-02T01:29:07;12.40;99.90
36416;DHT22;22447;44.530;18.620;2023-05-02T01:31:34;12.50;99.90
36416;DHT22;22447;44.530;18.620;2023-05-02T01:34:01;12.50;99.90
36416;DHT22;22447;44.530;18.620;2023-05-02T01:36:28;12.50;99.90
36416;DHT22;22447;44.530;18.620;2023-05-02T01:38:54;12.60;99.90
36416;DHT22;22447;44.530;18.620;2023-05-02T01:41:21;12.60;99.90
36416;DHT22;22447;44.530;18.620;2023-05-02T01:43:49;12.60;99.90
36416;DHT22;22447;44.530;18.620;2023-05-02T01:46:15;12.60;99.90
36416;DHT22;22447;44.530;18.620;2023-05-02T01:48:43;12.60;99.90
36416;DHT22;22447;44.530;18.620;2023-05-02T01:51:11;12.60;99.90
36416;DHT22;22447;44.530;18.620;2023-05-02T01:53:39;12.60;99.90
36416;DHT22;22447;44.530;18.620;2023-05-02T01:56:05;12.60;99.90
36416;DHT22;22447;44.530;18.620;2023-05-02T01:58:31;12.60;99.90
36416;DHT22;22447;44.530;18.620;2023-05-02T02:00:58;12.70;99.90
36416;DHT22;22447;44.530;18.620;2023-05-02T02:03:25;12.80;99.90
36416;DHT22;22447;44.530;18.620;2023-05-02T02:05:52;12.80;99.90
36416;DHT22;22447;44.530;18.620;2023-05-02T02:08:19;12.70;99.90
36416;DHT22;22447;44.530;18.620;2023-05-02T02:10:47;12.70;99.90
36416;DHT22;22447;44.530;18.620;2023-05-02T02:13:16;12.70;99.90
36416;DHT22;22447;44.530;18.620;2023-05-02T02:15:42;12.70;99.90
36416;DHT22;22447;44.530;18.620;2023-05-02T02:18:12;12.70;99.90
36416;DHT22;22447;44.530;18.620;2023-05-02T02:20:41;12.70;99.90
36416;DHT22;22447;44.530;18.620;2023-05-02T02:23:07;12.70;99.90
36416;DHT22;22447;44.530;18.620;2023-05-02T02:25:34;12.60;99.90
36416;DHT22;22447;44.530;18.620;2023-05-02T02:28:00;12.60;99.90
36416;DHT22;22447;44.530;18.620;2023-05-02T02:30:26;12.50;99.90
36416;DHT22;22447;44.530;18.620;2023-05-02T02:32:52;12.40;99.90
36416;DHT22;22447;44.530;18.620;2023-05-02T02:35:18;12.50;99.90
36416;DHT22;22447;44.530;18.620;2023-05-02T02:37:53;12.50;99.90
36416;DHT22;22447;44.530;18.620;2023-05-02T02:52:49;12.40;99.90
36416;DHT22;22447;44.530;18.620;2023-05-02T02:55:28;12.40;99.90
36416;DHT22;22447;44.530;18.620;2023-05-02T02:57:59;12.30;99.90
36416;DHT22;22447;44.530;18.620;2023-05-02T03:00:27;12.30;99.90
36416;DHT22;22447;44.530;18.620;2023-05-02T03:02:53;12.30;99.90
36416;DHT22;22447;44.530;18.620;2023-05-02T03:05:21;12.30;99.90
36416;DHT22;22447;44.530;18.620;2023-05-02T03:07:47;12.30;99.90
36416;DHT22;22447;44.530;18.620;2023-05-02T03:10:13;12.20;99.90
36416;DHT22;22447;44.530;18.620;2023-05-02T03:12:39;12.20;99.90
36416;DHT22;22447;44.530;18.620;2023-05-02T03:17:51;12.20;99.90
36416;DHT22;22447;44.530;18.620;2023-05-02T03:20:17;12.20;99.90
36416;DHT22;22447;44.530;18.620;2023-05-02T03:22:43;12.20;99.90
36416;DHT22;22447;44.530;18.620;2023-05-02T03:25:08;12.20;99.90
36416;DHT22;22447;44.530;18.620;2023-05-02T03:27:37;12.20;99.90
36416;DHT22;22447;44.530;18.620;2023-05-02T03:30:06;12.20;99.90
36416;DHT22;22447;44.530;18.620;2023-05-02T03:32:32;12.30;99.90
36416;DHT22;22447;44.530;18.620;2023-05-02T03:34:58;12.20;99.90
36416;DHT22;22447;44.530;18.620;2023-05-02T03:37:30;12.30;99.90
36416;DHT22;22447;44.530;18.620;2023-05-02T03:39:58;12.40;99.90
36416;DHT22;22447;44.530;18.620;2023-05-02T03:42:23;12.40;99.90
36416;DHT22;22447;44.530;18.620;2023-05-02T03:44:52;12.40;99.90
36416;DHT22;22447;44.530;18.620;2023-05-02T03:47:19;12.40;99.90
36416;DHT22;22447;44.530;18.620;2023-05-02T03:49:45;12.30;99.90
36416;DHT22;22447;44.530;18.620;2023-05-02T03:52:13;12.30;99.90
36416;DHT22;22447;44.530;18.620;2023-05-02T03:54:40;12.40;99.90
36416;DHT22;22447;44.530;18.620;2023-05-02T03:57:08;12.40;99.90
36416;DHT22;22447;44.530;18.620;2023-05-02T03:59:34;12.50;99.90
36416;DHT22;22447;44.530;18.620;2023-05-02T04:02:06;12.50;99.90
36416;DHT22;22447;44.530;18.620;2023-05-02T04:04:42;12.50;99.90
36416;DHT22;22447;44.530;18.620;2023-05-02T04:07:10;12.40;99.90
36416;DHT22;22447;44.530;18.620;2023-05-02T04:09:43;12.40;99.90
36416;DHT22;22447;44.530;18.620;2023-05-02T04:12:10;12.40;99.90
36416;DHT22;22447;44.530;18.620;2023-05-02T04:14:40;12.50;99.90
36416;DHT22;22447;44.530;18.620;2023-05-02T04:17:07;12.50;99.90
36416;DHT22;22447;44.530;18.620;2023-05-02T04:19:43;12.50;99.90
36416;DHT22;22447;44.530;18.620;2023-05-02T04:22:09;12.60;99.90
36416;DHT22;22447;44.530;18.620;2023-05-02T04:24:39;12.60;99.90
36416;DHT22;22447;44.530;18.620;2023-05-02T04:27:06;12.60;99.90
36416;DHT22;22447;44.530;18.620;2023-05-02T04:29:33;12.70;99.90
36416;DHT22;22447;44.530;18.620;2023-05-02T04:32:00;12.60;99.90
36416;DHT22;22447;44.530;18.620;2023-05-02T04:34:28;12.60;99.90
36416;DHT22;22447;44.530;18.620;2023-05-02T04:36:54;12.60;99.90
36416;DHT22;22447;44.530;18.620;2023-05-02T04:39:22;12.60;99.90
36416;DHT22;22447;44.530;18.620;2023-05-02T04:42:08;12.70;99.90
36416;DHT22;22447;44.530;18.620;2023-05-02T04:44:41;12.60;99.90
36416;DHT22;22447;44.530;18.620;2023-05-02T04:47:07;12.60;99.90
36416;DHT22;22447;44.530;18.620;2023-05-02T04:49:32;12.80;99.90
36416;DHT22;22447;44.530;18.620;2023-05-02T04:51:58;12.80;99.90
36416;DHT22;22447;44.530;18.620;2023-05-02T04:54:24;12.90;99.90
36416;DHT22;22447;44.530;18.620;2023-05-02T04:56:50;12.90;99.90
36416;DHT22;22447;44.530;18.620;2023-05-02T04:59:17;13.00;99.90
36416;DHT22;22447;44.530;18.620;2023-05-02T05:01:43;13.00;99.90
36416;DHT22;22447;44.530;18.620;2023-05-02T05:04:10;13.10;99.90
36416;DHT22;22447;44.530;18.620;2023-05-02T05:06:36;13.20;99.90
36416;DHT22;22447;44.530;18.620;2023-05-02T05:09:03;13.30;99.90
36416;DHT22;22447;44.530;18.620;2023-05-02T05:11:29;13.30;99.90
36416;DHT22;22447;44.530;18.620;2023-05-02T05:13:55;13.40;99.90
36416;DHT22;22447;44.530;18.620;2023-05-02T05:16:22;13.40;99.90
36416;DHT22;22447;44.530;18.620;2023-05-02T05:18:49;13.40;99.90
36416;DHT22;22447;44.530;18.620;2023-05-02T05:21:15;13.50;99.90
36416;DHT22;22447;44.530;18.620;2023-05-02T05:23:41;13.50;99.90
36416;DHT22;22447;44.530;18.620;2023-05-02T05:26:14;13.50;99.90
36416;DHT22;22447;44.530;18.620;2023-05-02T05:28:43;13.50;99.90
36416;DHT22;22447;44.530;18.620;2023-05-02T05:31:10;13.50;99.90
36416;DHT22;22447;44.530;18.620;2023-05-02T05:33:37;13.50;99.90
36416;DHT22;22447;44.530;18.620;2023-05-02T05:36:11;13.50;99.90
36416;DHT22;22447;44.530;18.620;2023-05-02T05:38:37;13.60;99.90
36416;DHT22;22447;44.530;18.620;2023-05-02T05:41:03;13.60;99.90
36416;DHT22;22447;44.530;18.620;2023-05-02T05:43:30;13.70;99.90
36416;DHT22;22447;44.530;18.620;2023-05-02T05:45:58;13.80;99.90
36416;DHT22;22447;44.530;18.620;2023-05-02T05:48:24;13.80;99.90
36416;DHT22;22447;44.530;18.620;2023-05-02T05:50:50;13.80;99.90
36416;DHT22;22447;44.530;18.620;2023-05-02T05:53:18;13.80;99.90
36416;DHT22;22447;44.530;18.620;2023-05-02T05:55:46;13.80;99.90
36416;DHT22;22447;44.530;18.620;2023-05-02T05:58:12;13.80;99.90
36416;DHT22;22447;44.530;18.620;2023-05-02T06:00:39;13.80;99.90
36416;DHT22;22447;44.530;18.620;2023-05-02T06:03:06;13.80;99.90
36416;DHT22;22447;44.530;18.620;2023-05-02T06:05:32;13.80;99.90
36416;DHT22;22447;44.530;18.620;2023-05-02T06:07:58;13.80;99.90
36416;DHT22;22447;44.530;18.620;2023-05-02T06:10:25;14.00;99.90
36416;DHT22;22447;44.530;18.620;2023-05-02T06:12:51;14.10;99.90
36416;DHT22;22447;44.530;18.620;2023-05-02T06:15:21;14.20;99.90
36416;DHT22;22447;44.530;18.620;2023-05-02T06:17:49;14.20;99.90
36416;DHT22;22447;44.530;18.620;2023-05-02T06:20:15;14.30;99.90
36416;DHT22;22447;44.530;18.620;2023-05-02T06:22:41;14.30;99.90
36416;DHT22;22447;44.530;18.620;2023-05-02T06:25:07;14.30;99.90
36416;DHT22;22447;44.530;18.620;2023-05-02T06:27:33;14.40;99.90
36416;DHT22;22447;44.530;18.620;2023-05-02T06:29:59;14.50;99.90
36416;DHT22;22447;44.530;18.620;2023-05-02T06:32:28;14.50;99.90
36416;DHT22;22447;44.530;18.620;2023-05-02T06:34:54;14.50;99.90
36416;DHT22;22447;44.530;18.620;2023-05-02T06:37:20;14.60;99.90
36416;DHT22;22447;44.530;18.620;2023-05-02T06:39:46;14.60;99.90
36416;DHT22;22447;44.530;18.620;2023-05-02T06:42:11;14.60;99.90
36416;DHT22;22447;44.530;18.620;2023-05-02T06:44:37;14.70;99.90
36416;DHT22;22447;44.530;18.620;2023-05-02T06:47:03;14.70;99.90
36416;DHT22;22447;44.530;18.620;2023-05-02T06:49:29;14.80;99.90
36416;DHT22;22447;44.530;18.620;2023-05-02T06:51:55;14.70;99.90
36416;DHT22;22447;44.530;18.620;2023-05-02T06:54:21;14.90;99.90
36416;DHT22;22447;44.530;18.620;2023-05-02T06:56:47;14.80;99.90
36416;DHT22;22447;44.530;18.620;2023-05-02T06:59:12;14.80;99.90
36416;DHT22;22447;44.530;18.620;2023-05-02T07:01:42;14.70;99.90
36416;DHT22;22447;44.530;18.620;2023-05-02T07:04:08;14.80;99.90
36416;DHT22;22447;44.530;18.620;2023-05-02T07:06:34;14.90;99.90
36416;DHT22;22447;44.530;18.620;2023-05-02T07:09:00;15.00;99.90
36416;DHT22;22447;44.530;18.620;2023-05-02T07:11:26;15.00;99.90
36416;DHT22;22447;44.530;18.620;2023-05-02T07:13:52;15.10;99.90
36416;DHT22;22447;44.530;18.620;2023-05-02T07:16:18;15.10;99.90
36416;DHT22;22447;44.530;18.620;2023-05-02T07:18:44;15.10;99.90
36416;DHT22;22447;44.530;18.620;2023-05-02T07:21:10;15.30;99.90
36416;DHT22;22447;44.530;18.620;2023-05-02T07:23:36;15.30;99.90
36416;DHT22;22447;44.530;18.620;2023-05-02T07:26:02;15.40;99.90
36416;DHT22;22447;44.530;18.620;2023-05-02T07:28:29;15.40;99.90
36416;DHT22;22447;44.530;18.620;2023-05-02T07:30:55;15.40;99.90
36416;DHT22;22447;44.530;18.620;2023-05-02T07:33:21;15.50;99.90
36416;DHT22;22447;44.530;18.620;2023-05-02T07:35:48;15.50;99.90
36416;DHT22;22447;44.530;18.620;2023-05-02T07:38:14;15.50;99.90
36416;DHT22;22447;44.530;18.620;2023-05-02T07:40:40;15.60;99.90
36416;DHT22;22447;44.530;18.620;2023-05-02T07:43:06;15.60;99.90
36416;DHT22;22447;44.530;18.620;2023-05-02T07:45:31;15.70;99.90
36416;DHT22;22447;44.530;18.620;2023-05-02T07:47:58;15.90;99.90
36416;DHT22;22447;44.530;18.620;2023-05-02T07:50:24;16.00;99.90
36416;DHT22;22447;44.530;18.620;2023-05-02T07:52:51;16.00;99.90
36416;DHT22;22447;44.530;18.620;2023-05-02T07:55:17;16.00;99.90
36416;DHT22;22447;44.530;18.620;2023-05-02T07:57:43;15.90;99.90
36416;DHT22;22447;44.530;18.620;2023-05-02T08:00:08;15.90;99.90
36416;DHT22;22447;44.530;18.620;2023-05-02T08:02:40;16.00;99.90
36416;DHT22;22447;44.530;18.620;2023-05-02T08:05:07;16.10;99.90
36416;DHT22;22447;44.530;18.620;2023-05-02T08:07:32;16.10;99.90
36416;DHT22;22447;44.530;18.620;2023-05-02T08:09:59;16.30;99.90
36416;DHT22;22447;44.530;18.620;2023-05-02T08:12:25;16.40;99.90
36416;DHT22;22447;44.530;18.620;2023-05-02T08:14:51;16.50;99.90
36416;DHT22;22447;44.530;18.620;2023-05-02T08:17:17;16.60;99.90
36416;DHT22;22447;44.530;18.620;2023-05-02T08:19:43;16.70;99.90
36416;DHT22;22447;44.530;18.620;2023-05-02T08:22:09;16.90;99.90
36416;DHT22;22447;44.530;18.620;2023-05-02T08:24:35;16.90;99.90
36416;DHT22;22447;44.530;18.620;2023-05-02T08:27:00;16.90;99.90
36416;DHT22;22447;44.530;18.620;2023-05-02T08:29:29;16.90;99.90
36416;DHT22;22447;44.530;18.620;2023-05-02T08:31:54;16.90;99.90
36416;DHT22;22447;44.530;18.620;2023-05-02T08:34:20;16.80;99.90
36416;DHT22;22447;44.530;18.620;2023-05-02T08:36:46;17.10;99.90
36416;DHT22;22447;44.530;18.620;2023-05-02T08:39:12;17.30;99.90
36416;DHT22;22447;44.530;18.620;2023-05-02T08:41:37;17.50;99.90
36416;DHT22;22447;44.530;18.620;2023-05-02T08:44:04;17.50;99.90
36416;DHT22;22447;44.530;18.620;2023-05-02T08:46:30;17.60;99.90
36416;DHT22;22447;44.530;18.620;2023-05-02T08:48:56;17.70;99.90
36416;DHT22;22447;44.530;18.620;2023-05-02T08:51:23;17.80;99.90
36416;DHT22;22447;44.530;18.620;2023-05-02T08:53:49;17.80;99.90
36416;DHT22;22447;44.530;18.620;2023-05-02T08:56:16;17.90;99.90
36416;DHT22;22447;44.530;18.620;2023-05-02T08:58:42;17.80;99.90
36416;DHT22;22447;44.530;18.620;2023-05-02T09:01:17;17.80;99.90
36416;DHT22;22447;44.530;18.620;2023-05-02T09:03:44;17.90;99.90
36416;DHT22;22447;44.530;18.620;2023-05-02T09:06:11;17.60;99.90
36416;DHT22;22447;44.530;18.620;2023-05-02T09:08:37;17.80;99.90
36416;DHT22;22447;44.530;18.620;2023-05-02T09:11:03;17.60;99.90
36416;DHT22;22447;44.530;18.620;2023-05-02T09:13:30;17.80;99.90
36416;DHT22;22447;44.530;18.620;2023-05-02T09:15:57;17.90;99.90
36416;DHT22;22447;44.530;18.620;2023-05-02T09:18:26;18.00;99.90
36416;DHT22;22447;44.530;18.620;2023-05-02T09:20:52;18.00;99.90
36416;DHT22;22447;44.530;18.620;2023-05-02T09:23:19;18.10;99.90
36416;DHT22;22447;44.530;18.620;2023-05-02T09:25:44;18.20;99.90
36416;DHT22;22447;44.530;18.620;2023-05-02T09:28:10;18.20;99.90
36416;DHT22;22447;44.530;18.620;2023-05-02T09:30:36;18.30;99.90
36416;DHT22;22447;44.530;18.620;2023-05-02T09:33:02;18.20;99.90
36416;DHT22;22447;44.530;18.620;2023-05-02T09:35:27;18.10;99.90
36416;DHT22;22447;44.530;18.620;2023-05-02T09:37:54;18.20;99.90
36416;DHT22;22447;44.530;18.620;2023-05-02T09:40:20;18.30;99.90
36416;DHT22;22447;44.530;18.620;2023-05-02T09:42:46;18.30;99.90
36416;DHT22;22447;44.530;18.620;2023-05-02T09:45:21;18.40;99.90
36416;DHT22;22447;44.530;18.620;2023-05-02T09:47:48;18.50;99.90
36416;DHT22;22447;44.530;18.620;2023-05-02T09:50:33;18.50;99.90
36416;DHT22;22447;44.530;18.620;2023-05-02T09:52:59;18.60;99.90
36416;DHT22;22447;44.530;18.620;2023-05-02T09:55:25;18.70;99.90
36416;DHT22;22447;44.530;18.620;2023-05-02T09:57:51;18.70;99.90
36416;DHT22;22447;44.530;18.620;2023-05-02T10:00:17;18.80;99.90
36416;DHT22;22447;44.530;18.620;2023-05-02T10:02:44;18.80;99.90
36416;DHT22;22447;44.530;18.620;2023-05-02T10:05:12;19.00;99.90
36416;DHT22;22447;44.530;18.620;2023-05-02T10:07:38;19.10;99.90
36416;DHT22;22447;44.530;18.620;2023-05-02T10:10:04;18.90;99.90
36416;DHT22;22447;44.530;18.620;2023-05-02T10:12:31;18.70;99.90
36416;DHT22;22447;44.530;18.620;2023-05-02T10:14:59;18.70;99.90
36416;DHT22;22447;44.530;18.620;2023-05-02T10:17:33;18.70;99.90
36416;DHT22;22447;44.530;18.620;2023-05-02T10:20:03;18.50;99.90
36416;DHT22;22447;44.530;18.620;2023-05-02T10:22:29;18.80;99.90
36416;DHT22;22447;44.530;18.620;2023-05-02T10:24:56;18.90;99.90
36416;DHT22;22447;44.530;18.620;2023-05-02T10:27:22;18.80;99.90
36416;DHT22;22447;44.530;18.620;2023-05-02T10:29:48;18.90;99.90
36416;DHT22;22447;44.530;18.620;2023-05-02T10:32:16;18.80;99.90
36416;DHT22;22447;44.530;18.620;2023-05-02T10:34:42;18.80;99.90
36416;DHT22;22447;44.530;18.620;2023-05-02T10:37:08;18.80;99.40
36416;DHT22;22447;44.530;18.620;2023-05-02T10:39:34;18.90;98.90
36416;DHT22;22447;44.530;18.620;2023-05-02T10:42:00;19.00;99.90
36416;DHT22;22447;44.530;18.620;2023-05-02T10:44:34;19.10;99.30
36416;DHT22;22447;44.530;18.620;2023-05-02T10:47:00;19.20;99.30
36416;DHT22;22447;44.530;18.620;2023-05-02T10:49:26;19.40;99.90
36416;DHT22;22447;44.530;18.620;2023-05-02T10:51:54;19.30;96.90
36416;DHT22;22447;44.530;18.620;2023-05-02T10:59:27;19.50;94.70
36416;DHT22;22447;44.530;18.620;2023-05-02T11:01:53;19.50;95.10
36416;DHT22;22447;44.530;18.620;2023-05-02T11:04:19;19.40;94.20
36416;DHT22;22447;44.530;18.620;2023-05-02T11:07:18;19.70;98.80
36416;DHT22;22447;44.530;18.620;2023-05-02T11:09:37;19.90;94.50
36416;DHT22;22447;44.530;18.620;2023-05-02T11:12:03;19.90;95.20
36416;DHT22;22447;44.530;18.620;2023-05-02T11:17:04;20.20;96.20
36416;DHT22;22447;44.530;18.620;2023-05-02T11:22:35;20.60;93.60
36416;DHT22;22447;44.530;18.620;2023-05-02T11:24:54;20.70;92.70
36416;DHT22;22447;44.530;18.620;2023-05-02T11:30:04;20.80;90.70
36416;DHT22;22447;44.530;18.620;2023-05-02T11:37:42;20.70;84.20
36416;DHT22;22447;44.530;18.620;2023-05-02T11:40:11;20.60;82.70
36416;DHT22;22447;44.530;18.620;2023-05-02T11:42:37;20.70;83.80
36416;DHT22;22447;44.530;18.620;2023-05-02T11:45:03;20.70;78.60
36416;DHT22;22447;44.530;18.620;2023-05-02T11:47:31;20.70;76.70
36416;DHT22;22447;44.530;18.620;2023-05-02T11:49:57;20.70;82.20
36416;DHT22;22447;44.530;18.620;2023-05-02T11:52:24;20.50;80.10
36416;DHT22;22447;44.530;18.620;2023-05-02T11:54:53;20.20;81.20
36416;DHT22;22447;44.530;18.620;2023-05-02T11:57:22;20.20;77.50
36416;DHT22;22447;44.530;18.620;2023-05-02T11:59:51;20.10;78.00
36416;DHT22;22447;44.530;18.620;2023-05-02T12:02:18;20.10;78.10
36416;DHT22;22447;44.530;18.620;2023-05-02T12:04:43;20.10;78.70
36416;DHT22;22447;44.530;18.620;2023-05-02T12:07:09;20.00;78.10
36416;DHT22;22447;44.530;18.620;2023-05-02T12:09:35;20.00;77.90
36416;DHT22;22447;44.530;18.620;2023-05-02T12:12:18;20.20;79.90
36416;DHT22;22447;44.530;18.620;2023-05-02T12:14:43;20.20;77.70
36416;DHT22;22447;44.530;18.620;2023-05-02T12:17:09;20.30;79.80
36416;DHT22;22447;44.530;18.620;2023-05-02T12:19:36;20.40;78.40
36416;DHT22;22447;44.530;18.620;2023-05-02T12:22:03;20.40;80.10
36416;DHT22;22447;44.530;18.620;2023-05-02T12:24:28;20.40;78.10
36416;DHT22;22447;44.530;18.620;2023-05-02T12:27:13;20.40;77.10
36416;DHT22;22447;44.530;18.620;2023-05-02T12:29:40;20.30;81.90
36416;DHT22;22447;44.530;18.620;2023-05-02T12:32:06;20.40;80.20
36416;DHT22;22447;44.530;18.620;2023-05-02T12:34:34;20.10;79.00
36416;DHT22;22447;44.530;18.620;2023-05-02T12:37:01;20.20;78.80
36416;DHT22;22447;44.530;18.620;2023-05-02T12:39:34;20.20;79.20
36416;DHT22;22447;44.530;18.620;2023-05-02T12:42:00;20.40;78.90
36416;DHT22;22447;44.530;18.620;2023-05-02T12:44:36;20.30;79.20
36416;DHT22;22447;44.530;18.620;2023-05-02T12:47:03;20.30;76.80
36416;DHT22;22447;44.530;18.620;2023-05-02T12:49:29;20.60;78.10
36416;DHT22;22447;44.530;18.620;2023-05-02T12:51:55;20.80;77.30
36416;DHT22;22447;44.530;18.620;2023-05-02T12:54:21;20.90;73.40
36416;DHT22;22447;44.530;18.620;2023-05-02T12:56:47;20.80;75.30
36416;DHT22;22447;44.530;18.620;2023-05-02T12:59:26;21.00;77.00
36416;DHT22;22447;44.530;18.620;2023-05-02T13:01:52;21.10;76.90
36416;DHT22;22447;44.530;18.620;2023-05-02T13:04:18;21.10;78.40
36416;DHT22;22447;44.530;18.620;2023-05-02T13:06:44;21.10;77.50
36416;DHT22;22447;44.530;18.620;2023-05-02T13:09:10;21.20;75.40
36416;DHT22;22447;44.530;18.620;2023-05-02T13:11:36;21.00;72.50
36416;DHT22;22447;44.530;18.620;2023-05-02T13:14:03;21.10;74.30
36416;DHT22;22447;44.530;18.620;2023-05-02T13:16:30;21.20;75.60
36416;DHT22;22447;44.530;18.620;2023-05-02T13:18:58;21.20;76.30
36416;DHT22;22447;44.530;18.620;2023-05-02T13:21:23;21.20;77.70
36416;DHT22;22447;44.530;18.620;2023-05-02T13:23:49;21.20;75.80
36416;DHT22;22447;44.530;18.620;2023-05-02T13:26:16;21.20;76.40
36416;DHT22;22447;44.530;18.620;2023-05-02T13:28:42;21.20;77.30
36416;DHT22;22447;44.530;18.620;2023-05-02T13:31:07;21.20;76.90
36416;DHT22;22447;44.530;18.620;2023-05-02T13:33:33;21.20;74.70
36416;DHT22;22447;44.530;18.620;2023-05-02T13:35:59;21.00;72.80
36416;DHT22;22447;44.530;18.620;2023-05-02T13:38:25;21.10;76.00
36416;DHT22;22447;44.530;18.620;2023-05-02T13:40:51;21.20;77.50
36416;DHT22;22447;44.530;18.620;2023-05-02T13:43:18;21.10;76.90
36416;DHT22;22447;44.530;18.620;2023-05-02T13:45:44;21.10;75.40
36416;DHT22;22447;44.530;18.620;2023-05-02T13:48:12;21.10;77.50
36416;DHT22;22447;44.530;18.620;2023-05-02T13:50:38;21.00;75.40
36416;DHT22;22447;44.530;18.620;2023-05-02T13:53:04;21.10;75.00
36416;DHT22;22447;44.530;18.620;2023-05-02T13:55:30;21.10;74.70
36416;DHT22;22447;44.530;18.620;2023-05-02T13:57:55;21.20;77.40
36416;DHT22;22447;44.530;18.620;2023-05-02T14:00:21;21.30;77.50
36416;DHT22;22447;44.530;18.620;2023-05-02T14:02:47;21.20;73.30
36416;DHT22;22447;44.530;18.620;2023-05-02T14:05:13;21.10;74.50
36416;DHT22;22447;44.530;18.620;2023-05-02T14:07:39;21.10;76.80
36416;DHT22;22447;44.530;18.620;2023-05-02T14:10:05;21.00;74.50
36416;DHT22;22447;44.530;18.620;2023-05-02T14:12:31;20.90;79.30
36416;DHT22;22447;44.530;18.620;2023-05-02T14:14:56;20.80;79.30
36416;DHT22;22447;44.530;18.620;2023-05-02T14:17:22;20.70;80.60
36416;DHT22;22447;44.530;18.620;2023-05-02T14:19:51;20.60;81.00
36416;DHT22;22447;44.530;18.620;2023-05-02T14:22:17;20.60;84.20
36416;DHT22;22447;44.530;18.620;2023-05-02T14:24:43;20.60;83.80
36416;DHT22;22447;44.530;18.620;2023-05-02T14:27:08;20.40;84.00
36416;DHT22;22447;44.530;18.620;2023-05-02T14:29:45;20.20;85.30
36416;DHT22;22447;44.530;18.620;2023-05-02T14:32:11;20.20;81.70
36416;DHT22;22447;44.530;18.620;2023-05-02T14:34:37;20.20;82.20
36416;DHT22;22447;44.530;18.620;2023-05-02T14:37:03;20.10;85.90
36416;DHT22;22447;44.530;18.620;2023-05-02T14:39:29;20.10;85.40
36416;DHT22;22447;44.530;18.620;2023-05-02T14:41:55;20.10;85.30
36416;DHT22;22447;44.530;18.620;2023-05-02T14:44:20;20.10;88.30
36416;DHT22;22447;44.530;18.620;2023-05-02T14:46:46;20.10;87.70
36416;DHT22;22447;44.530;18.620;2023-05-02T14:49:12;20.00;88.80
36416;DHT22;22447;44.530;18.620;2023-05-02T14:51:38;20.00;92.70
36416;DHT22;22447;44.530;18.620;2023-05-02T14:54:04;20.10;93.40
36416;DHT22;22447;44.530;18.620;2023-05-02T14:56:31;20.20;94.10
36416;DHT22;22447;44.530;18.620;2023-05-02T14:58:57;20.10;93.90
36416;DHT22;22447;44.530;18.620;2023-05-02T15:01:23;20.30;95.50
36416;DHT22;22447;44.530;18.620;2023-05-02T15:03:48;20.30;95.30
36416;DHT22;22447;44.530;18.620;2023-05-02T15:06:16;20.40;94.90
36416;DHT22;22447;44.530;18.620;2023-05-02T15:08:42;20.50;93.40
36416;DHT22;22447;44.530;18.620;2023-05-02T15:11:09;20.50;94.30
36416;DHT22;22447;44.530;18.620;2023-05-02T15:13:35;20.60;92.90
36416;DHT22;22447;44.530;18.620;2023-05-02T15:16:02;20.60;92.00
36416;DHT22;22447;44.530;18.620;2023-05-02T15:18:28;20.60;90.20
36416;DHT22;22447;44.530;18.620;2023-05-02T15:20:54;20.60;88.20
36416;DHT22;22447;44.530;18.620;2023-05-02T15:23:19;20.70;90.60
36416;DHT22;22447;44.530;18.620;2023-05-02T15:25:45;20.70;91.30
36416;DHT22;22447;44.530;18.620;2023-05-02T15:28:11;20.70;88.60
36416;DHT22;22447;44.530;18.620;2023-05-02T15:30:37;20.70;85.70
36416;DHT22;22447;44.530;18.620;2023-05-02T15:33:04;20.70;85.40
36416;DHT22;22447;44.530;18.620;2023-05-02T15:35:29;20.70;82.60
36416;DHT22;22447;44.530;18.620;2023-05-02T15:37:56;20.70;82.80
36416;DHT22;22447;44.530;18.620;2023-05-02T15:40:21;20.70;80.90
36416;DHT22;22447;44.530;18.620;2023-05-02T15:42:47;20.80;83.20
36416;DHT22;22447;44.530;18.620;2023-05-02T15:45:13;20.70;86.00
36416;DHT22;22447;44.530;18.620;2023-05-02T15:47:39;20.70;87.60
36416;DHT22;22447;44.530;18.620;2023-05-02T15:50:05;20.70;89.80
36416;DHT22;22447;44.530;18.620;2023-05-02T15:52:31;20.60;91.40
36416;DHT22;22447;44.530;18.620;2023-05-02T15:54:57;20.60;90.40